sensor_id;sensor_type;location;lat;lon;timestamp;pressure;altitude;pressure_sealevel;temperature;humidity
54270;BME280;40181;51.560;13.000;2023-03-03T00:01:50;101400.25;;;-0.31;100.00
54270;BME280;40181;51.560;13.000;2023-03-03T00:04:19;101393.69;;;-0.14;100.00
54270;BME280;40181;51.560;13.000;2023-03-03T00:06:48;101396.69;;;-0.08;100.00
54270;BME280;40181;51.560;13.000;2023-03-03T00:09:17;101394.63;;;-0.25;100.00
54270;BME280;40181;51.560;13.000;2023-03-03T00:11:49;101402.63;;;-0.34;100.00
54270;BME280;40181;51.560;13.000;2023-03-03T00:14:27;101393.81;;;-0.24;100.00
54270;BME280;40181;51.560;13.000;2023-03-03T00:17:00;101405.44;;;-0.06;100.00
54270;BME280;40181;51.560;13.000;2023-03-03T00:19:38;101404.28;;;-0.23;100.00
54270;BME280;40181;51.560;13.000;2023-03-03T00:22:18;101399.56;;;-0.17;100.00
54270;BME280;40181;51.560;13.000;2023-03-03T00:24:53;101402.28;;;-0.39;100.00
54270;BME280;40181;51.560;13.000;2023-03-03T00:27:27;101409.44;;;-0.23;100.00
54270;BME280;40181;51.560;13.000;2023-03-03T00:29:59;101403.41;;;-0.35;100.00
54270;BME280;40181;51.560;13.000;2023-03-03T00:32:35;101402.31;;;-0.51;100.00
54270;BME280;40181;51.560;13.000;2023-03-03T00:35:23;101398.81;;;-0.39;100.00
54270;BME280;40181;51.560;13.000;2023-03-03T00:37:56;101402.03;;;-0.30;100.00
54270;BME280;40181;51.560;13.000;2023-03-03T00:40:31;101400.56;;;-0.26;100.00
54270;BME280;40181;51.560;13.000;2023-03-03T00:43:14;101405.09;;;-0.60;100.00
54270;BME280;40181;51.560;13.000;2023-03-03T00:45:47;101407.44;;;-0.27;100.00
54270;BME280;40181;51.560;13.000;2023-03-03T00:48:25;101409.56;;;-0.21;100.00
54270;BME280;40181;51.560;13.000;2023-03-03T00:50:57;101408.25;;;-0.40;100.00
54270;BME280;40181;51.560;13.000;2023-03-03T00:53:28;101404.84;;;-0.27;100.00
54270;BME280;40181;51.560;13.000;2023-03-03T00:55:58;101399.59;;;-0.40;100.00
54270;BME280;40181;51.560;13.000;2023-03-03T00:58:27;101399.47;;;-0.42;100.00
54270;BME280;40181;51.560;13.000;2023-03-03T01:00:56;101395.44;;;-0.38;100.00
54270;BME280;40181;51.560;13.000;2023-03-03T01:03:28;101395.28;;;-0.28;100.00
54270;BME280;40181;51.560;13.000;2023-03-03T01:05:57;101395.34;;;-0.03;100.00
54270;BME280;40181;51.560;13.000;2023-03-03T01:08:26;101377.09;;;-0.18;100.00
54270;BME280;40181;51.560;13.000;2023-03-03T01:10:57;101378.28;;;-0.50;100.00
54270;BME280;40181;51.560;13.000;2023-03-03T01:13:28;101398.84;;;-0.14;100.00
54270;BME280;40181;51.560;13.000;2023-03-03T01:15:59;101392.19;;;-0.60;100.00
54270;BME280;40181;51.560;13.000;2023-03-03T01:18:32;101395.91;;;-0.68;100.00
54270;BME280;40181;51.560;13.000;2023-03-03T01:21:02;101402.31;;;-0.63;100.00
54270;BME280;40181;51.560;13.000;2023-03-03T01:23:31;101415.88;;;-0.77;100.00
54270;BME280;40181;51.560;13.000;2023-03-03T01:26:01;101401.19;;;-0.43;100.00
54270;BME280;40181;51.560;13.000;2023-03-03T01:28:31;101401.66;;;-0.72;100.00
54270;BME280;40181;51.560;13.000;2023-03-03T01:31:00;101400.97;;;-0.81;100.00
54270;BME280;40181;51.560;13.000;2023-03-03T01:33:34;101400.63;;;-1.10;100.00
54270;BME280;40181;51.560;13.000;2023-03-03T01:36:05;101405.41;;;-1.27;100.00
54270;BME280;40181;51.560;13.000;2023-03-03T01:38:35;101391.91;;;-0.76;100.00
54270;BME280;40181;51.560;13.000;2023-03-03T01:41:05;101382.78;;;-0.83;100.00
54270;BME280;40181;51.560;13.000;2023-03-03T01:43:45;101393.22;;;-0.81;100.00
54270;BME280;40181;51.560;13.000;2023-03-03T01:46:32;101372.78;;;-1.38;100.00
54270;BME280;40181;51.560;13.000;2023-03-03T01:49:15;101367.97;;;-1.33;100.00
54270;BME280;40181;51.560;13.000;2023-03-03T01:51:49;101386.06;;;-1.09;100.00
54270;BME280;40181;51.560;13.000;2023-03-03T01:54:23;101385.16;;;-0.86;100.00
54270;BME280;40181;51.560;13.000;2023-03-03T01:56:58;101405.09;;;-1.07;100.00
54270;BME280;40181;51.560;13.000;2023-03-03T01:59:33;101399.63;;;-1.00;100.00
54270;BME280;40181;51.560;13.000;2023-03-03T02:02:04;101399.50;;;-1.02;100.00
54270;BME280;40181;51.560;13.000;2023-03-03T02:04:36;101397.72;;;-1.03;100.00
54270;BME280;40181;51.560;13.000;2023-03-03T02:07:08;101398.59;;;-0.90;100.00
54270;BME280;40181;51.560;13.000;2023-03-03T02:09:44;101410.38;;;-1.06;100.00
54270;BME280;40181;51.560;13.000;2023-03-03T02:12:20;101397.16;;;-0.87;100.00
54270;BME280;40181;51.560;13.000;2023-03-03T02:14:53;101410.47;;;-1.28;100.00
54270;BME280;40181;51.560;13.000;2023-03-03T02:17:22;101408.03;;;-1.03;100.00
54270;BME280;40181;51.560;13.000;2023-03-03T02:19:59;101409.38;;;-1.08;100.00
54270;BME280;40181;51.560;13.000;2023-03-03T02:22:35;101401.53;;;-1.09;100.00
54270;BME280;40181;51.560;13.000;2023-03-03T02:25:16;101400.31;;;-0.91;100.00
54270;BME280;40181;51.560;13.000;2023-03-03T02:27:51;101399.63;;;-1.00;100.00
54270;BME280;40181;51.560;13.000;2023-03-03T02:30:22;101386.03;;;-0.74;100.00
54270;BME280;40181;51.560;13.000;2023-03-03T02:32:52;101390.09;;;-1.01;100.00
54270;BME280;40181;51.560;13.000;2023-03-03T02:35:27;101378.97;;;-0.64;100.00
54270;BME280;40181;51.560;13.000;2023-03-03T02:38:03;101392.56;;;-1.03;100.00
54270;BME280;40181;51.560;13.000;2023-03-03T02:40:46;101373.38;;;-0.71;100.00
54270;BME280;40181;51.560;13.000;2023-03-03T02:43:26;101381.59;;;-0.76;100.00
54270;BME280;40181;51.560;13.000;2023-03-03T02:45:59;101382.13;;;-0.92;100.00
54270;BME280;40181;51.560;13.000;2023-03-03T02:48:28;101376.38;;;-0.64;100.00
54270;BME280;40181;51.560;13.000;2023-03-03T02:50:57;101384.16;;;-0.88;100.00
54270;BME280;40181;51.560;13.000;2023-03-03T02:53:27;101387.75;;;-0.86;100.00
54270;BME280;40181;51.560;13.000;2023-03-03T02:55:56;101380.53;;;-0.66;100.00
54270;BME280;40181;51.560;13.000;2023-03-03T02:58:27;101386.75;;;-0.76;100.00
54270;BME280;40181;51.560;13.000;2023-03-03T03:00:56;101380.66;;;-0.53;100.00
54270;BME280;40181;51.560;13.000;2023-03-03T03:03:25;101388.41;;;-0.77;100.00
54270;BME280;40181;51.560;13.000;2023-03-03T03:05:55;101384.72;;;-0.80;100.00
54270;BME280;40181;51.560;13.000;2023-03-03T03:08:24;101377.88;;;-0.92;100.00
54270;BME280;40181;51.560;13.000;2023-03-03T03:10:53;101386.28;;;-0.94;100.00
54270;BME280;40181;51.560;13.000;2023-03-03T03:13:23;101381.00;;;-0.84;100.00
54270;BME280;40181;51.560;13.000;2023-03-03T03:15:56;101381.00;;;-0.60;100.00
54270;BME280;40181;51.560;13.000;2023-03-03T03:18:26;101378.53;;;-0.71;100.00
54270;BME280;40181;51.560;13.000;2023-03-03T03:20:55;101381.53;;;-0.64;100.00
54270;BME280;40181;51.560;13.000;2023-03-03T03:23:24;101391.31;;;-0.60;100.00
54270;BME280;40181;51.560;13.000;2023-03-03T03:25:53;101375.59;;;-0.63;100.00
54270;BME280;40181;51.560;13.000;2023-03-03T03:28:22;101373.06;;;-0.87;100.00
54270;BME280;40181;51.560;13.000;2023-03-03T03:30:54;101371.47;;;-0.85;100.00
54270;BME280;40181;51.560;13.000;2023-03-03T03:33:23;101366.38;;;-0.60;100.00
54270;BME280;40181;51.560;13.000;2023-03-03T03:35:52;101386.25;;;-0.47;100.00
54270;BME280;40181;51.560;13.000;2023-03-03T03:38:22;101385.91;;;-0.51;100.00
54270;BME280;40181;51.560;13.000;2023-03-03T03:40:52;101382.75;;;-0.35;100.00
54270;BME280;40181;51.560;13.000;2023-03-03T03:43:21;101382.97;;;-0.44;100.00
54270;BME280;40181;51.560;13.000;2023-03-03T03:45:53;101385.66;;;-0.31;100.00
54270;BME280;40181;51.560;13.000;2023-03-03T03:48:23;101383.63;;;-0.35;100.00
54270;BME280;40181;51.560;13.000;2023-03-03T03:50:52;101389.31;;;-0.76;100.00
54270;BME280;40181;51.560;13.000;2023-03-03T03:53:21;101394.34;;;-0.78;100.00
54270;BME280;40181;51.560;13.000;2023-03-03T03:55:50;101395.47;;;-0.86;100.00
54270;BME280;40181;51.560;13.000;2023-03-03T03:58:19;101408.13;;;-0.77;100.00
54270;BME280;40181;51.560;13.000;2023-03-03T04:00:48;101417.59;;;-0.78;100.00
54270;BME280;40181;51.560;13.000;2023-03-03T04:03:20;101405.81;;;-0.62;100.00
54270;BME280;40181;51.560;13.000;2023-03-03T04:05:51;101397.72;;;-0.79;100.00
54270;BME280;40181;51.560;13.000;2023-03-03T04:08:20;101402.88;;;-0.67;100.00
54270;BME280;40181;51.560;13.000;2023-03-03T04:10:49;101412.97;;;-0.70;100.00
54270;BME280;40181;51.560;13.000;2023-03-03T04:13:18;101416.47;;;-0.70;100.00
54270;BME280;40181;51.560;13.000;2023-03-03T04:15:47;101415.22;;;-0.75;100.00
54270;BME280;40181;51.560;13.000;2023-03-03T04:18:16;101413.75;;;-0.83;100.00
54270;BME280;40181;51.560;13.000;2023-03-03T04:20:48;101419.72;;;-0.72;100.00
54270;BME280;40181;51.560;13.000;2023-03-03T04:23:19;101416.22;;;-0.73;100.00
54270;BME280;40181;51.560;13.000;2023-03-03T04:25:48;101404.91;;;-0.63;100.00
54270;BME280;40181;51.560;13.000;2023-03-03T04:28:17;101411.06;;;-0.73;100.00
54270;BME280;40181;51.560;13.000;2023-03-03T04:30:49;101420.03;;;-0.79;100.00
54270;BME280;40181;51.560;13.000;2023-03-03T04:33:21;101410.50;;;-0.92;100.00
54270;BME280;40181;51.560;13.000;2023-03-03T04:35:50;101419.50;;;-0.75;100.00
54270;BME280;40181;51.560;13.000;2023-03-03T04:38:19;101428.69;;;-0.67;100.00
54270;BME280;40181;51.560;13.000;2023-03-03T04:40:48;101430.69;;;-0.75;100.00
54270;BME280;40181;51.560;13.000;2023-03-03T04:43:18;101426.56;;;-0.85;100.00
54270;BME280;40181;51.560;13.000;2023-03-03T04:45:47;101428.44;;;-0.82;100.00
54270;BME280;40181;51.560;13.000;2023-03-03T04:48:16;101415.34;;;-0.85;100.00
54270;BME280;40181;51.560;13.000;2023-03-03T04:50:48;101424.75;;;-0.86;100.00
54270;BME280;40181;51.560;13.000;2023-03-03T04:53:17;101423.66;;;-0.89;100.00
54270;BME280;40181;51.560;13.000;2023-03-03T04:55:48;101418.81;;;-0.96;100.00
54270;BME280;40181;51.560;13.000;2023-03-03T04:58:18;101423.28;;;-0.70;100.00
54270;BME280;40181;51.560;13.000;2023-03-03T05:00:52;101421.50;;;-0.71;100.00
54270;BME280;40181;51.560;13.000;2023-03-03T05:03:23;101415.34;;;-0.73;100.00
54270;BME280;40181;51.560;13.000;2023-03-03T05:05:55;101420.16;;;-0.78;100.00
54270;BME280;40181;51.560;13.000;2023-03-03T05:08:24;101416.13;;;-0.86;100.00
54270;BME280;40181;51.560;13.000;2023-03-03T05:10:53;101413.53;;;-0.74;100.00
54270;BME280;40181;51.560;13.000;2023-03-03T05:13:24;101408.94;;;-0.78;100.00
54270;BME280;40181;51.560;13.000;2023-03-03T05:15:55;101415.78;;;-0.79;100.00
54270;BME280;40181;51.560;13.000;2023-03-03T05:18:25;101416.13;;;-0.62;100.00
54270;BME280;40181;51.560;13.000;2023-03-03T05:20:57;101413.31;;;-0.77;100.00
54270;BME280;40181;51.560;13.000;2023-03-03T05:23:26;101407.47;;;-0.63;100.00
54270;BME280;40181;51.560;13.000;2023-03-03T05:25:55;101401.66;;;-0.60;100.00
54270;BME280;40181;51.560;13.000;2023-03-03T05:28:26;101402.09;;;-0.78;100.00
54270;BME280;40181;51.560;13.000;2023-03-03T05:30:55;101400.50;;;-0.52;100.00
54270;BME280;40181;51.560;13.000;2023-03-03T05:33:24;101402.09;;;-0.90;100.00
54270;BME280;40181;51.560;13.000;2023-03-03T05:35:53;101405.91;;;-0.73;100.00
54270;BME280;40181;51.560;13.000;2023-03-03T05:38:26;101415.00;;;-0.54;100.00
54270;BME280;40181;51.560;13.000;2023-03-03T05:40:55;101414.34;;;-0.75;100.00
54270;BME280;40181;51.560;13.000;2023-03-03T05:43:24;101411.16;;;-0.95;100.00
54270;BME280;40181;51.560;13.000;2023-03-03T05:45:54;101415.00;;;-0.66;100.00
54270;BME280;40181;51.560;13.000;2023-03-03T05:48:23;101413.09;;;-0.68;100.00
54270;BME280;40181;51.560;13.000;2023-03-03T05:50:53;101412.75;;;-0.85;100.00
54270;BME280;40181;51.560;13.000;2023-03-03T05:53:28;101413.75;;;-0.95;100.00
54270;BME280;40181;51.560;13.000;2023-03-03T05:55:57;101403.09;;;-0.76;100.00
54270;BME280;40181;51.560;13.000;2023-03-03T05:58:26;101407.47;;;-0.87;100.00
54270;BME280;40181;51.560;13.000;2023-03-03T06:00:55;101409.38;;;-0.60;100.00
54270;BME280;40181;51.560;13.000;2023-03-03T06:03:25;101416.47;;;-0.58;100.00
54270;BME280;40181;51.560;13.000;2023-03-03T06:05:54;101416.56;;;-0.56;100.00
54270;BME280;40181;51.560;13.000;2023-03-03T06:08:23;101414.75;;;-0.45;100.00
54270;BME280;40181;51.560;13.000;2023-03-03T06:10:56;101404.44;;;-0.45;100.00
54270;BME280;40181;51.560;13.000;2023-03-03T06:13:25;101415.56;;;-0.58;100.00
54270;BME280;40181;51.560;13.000;2023-03-03T06:15:54;101430.25;;;-0.57;100.00
54270;BME280;40181;51.560;13.000;2023-03-03T06:18:24;101439.34;;;-0.62;100.00
54270;BME280;40181;51.560;13.000;2023-03-03T06:20:53;101433.06;;;-0.54;100.00
54270;BME280;40181;51.560;13.000;2023-03-03T06:23:22;101440.09;;;-0.99;100.00
54270;BME280;40181;51.560;13.000;2023-03-03T06:25:55;101439.91;;;-0.78;100.00
54270;BME280;40181;51.560;13.000;2023-03-03T06:28:24;101444.06;;;-0.57;100.00
54270;BME280;40181;51.560;13.000;2023-03-03T06:30:53;101460.22;;;-0.47;100.00
54270;BME280;40181;51.560;13.000;2023-03-03T06:33:22;101452.69;;;-0.44;100.00
54270;BME280;40181;51.560;13.000;2023-03-03T06:35:53;101449.78;;;-0.49;100.00
54270;BME280;40181;51.560;13.000;2023-03-03T06:38:23;101451.22;;;-0.64;100.00
54270;BME280;40181;51.560;13.000;2023-03-03T06:40:54;101446.19;;;-0.51;100.00
54270;BME280;40181;51.560;13.000;2023-03-03T06:43:26;101445.06;;;-0.43;100.00
54270;BME280;40181;51.560;13.000;2023-03-03T06:45:55;101442.28;;;-0.58;100.00
54270;BME280;40181;51.560;13.000;2023-03-03T06:48:24;101461.69;;;-0.39;100.00
54270;BME280;40181;51.560;13.000;2023-03-03T06:50:53;101458.88;;;-0.54;100.00
54270;BME280;40181;51.560;13.000;2023-03-03T06:53:22;101462.88;;;-0.46;100.00
54270;BME280;40181;51.560;13.000;2023-03-03T06:55:57;101471.34;;;-0.60;100.00
54270;BME280;40181;51.560;13.000;2023-03-03T06:58:26;101486.13;;;-0.70;100.00
54270;BME280;40181;51.560;13.000;2023-03-03T07:00:56;101488.41;;;-0.62;100.00
54270;BME280;40181;51.560;13.000;2023-03-03T07:03:31;101477.81;;;-0.89;100.00
54270;BME280;40181;51.560;13.000;2023-03-03T07:06:07;101483.84;;;-1.01;100.00
54270;BME280;40181;51.560;13.000;2023-03-03T07:08:44;101481.63;;;-0.72;100.00
54270;BME280;40181;51.560;13.000;2023-03-03T07:11:18;101480.09;;;-0.46;99.83
54270;BME280;40181;51.560;13.000;2023-03-03T07:13:50;101479.75;;;-0.39;100.00
54270;BME280;40181;51.560;13.000;2023-03-03T07:16:25;101485.56;;;-0.65;100.00
54270;BME280;40181;51.560;13.000;2023-03-03T07:18:57;101482.53;;;-0.48;100.00
54270;BME280;40181;51.560;13.000;2023-03-03T07:21:31;101487.25;;;-0.42;100.00
54270;BME280;40181;51.560;13.000;2023-03-03T07:24:17;101484.78;;;-0.52;99.86
54270;BME280;40181;51.560;13.000;2023-03-03T07:26:59;101500.19;;;-0.54;98.32
54270;BME280;40181;51.560;13.000;2023-03-03T07:29:35;101488.63;;;-0.47;97.74
54270;BME280;40181;51.560;13.000;2023-03-03T07:32:21;101493.28;;;-0.89;99.89
54270;BME280;40181;51.560;13.000;2023-03-03T07:34:54;101497.47;;;-0.56;99.12
54270;BME280;40181;51.560;13.000;2023-03-03T07:37:29;101487.38;;;-0.40;98.42
54270;BME280;40181;51.560;13.000;2023-03-03T07:40:06;101492.53;;;-0.40;98.48
54270;BME280;40181;51.560;13.000;2023-03-03T07:42:58;101493.00;;;-0.34;97.66
54270;BME280;40181;51.560;13.000;2023-03-03T07:45:31;101489.94;;;-0.88;100.00
54270;BME280;40181;51.560;13.000;2023-03-03T07:48:22;101505.88;;;-0.58;100.00
54270;BME280;40181;51.560;13.000;2023-03-03T07:50:53;101498.50;;;-0.42;99.64
54270;BME280;40181;51.560;13.000;2023-03-03T07:53:25;101495.00;;;-0.42;99.68
54270;BME280;40181;51.560;13.000;2023-03-03T07:55:59;101511.78;;;-0.83;99.93
54270;BME280;40181;51.560;13.000;2023-03-03T07:58:36;101514.63;;;-0.56;99.80
54270;BME280;40181;51.560;13.000;2023-03-03T08:04:20;101503.63;;;-0.65;100.00
54270;BME280;40181;51.560;13.000;2023-03-03T08:06:53;101513.94;;;-0.65;100.00
54270;BME280;40181;51.560;13.000;2023-03-03T08:09:43;101519.91;;;-0.54;99.85
54270;BME280;40181;51.560;13.000;2023-03-03T08:12:24;101517.81;;;-0.48;99.99
54270;BME280;40181;51.560;13.000;2023-03-03T08:15:19;101514.00;;;-0.30;99.27
54270;BME280;40181;51.560;13.000;2023-03-03T08:17:51;101518.47;;;-0.27;98.32
54270;BME280;40181;51.560;13.000;2023-03-03T08:20:41;101514.78;;;-0.31;97.85
54270;BME280;40181;51.560;13.000;2023-03-03T08:23:14;101532.59;;;-0.46;98.04
54270;BME280;40181;51.560;13.000;2023-03-03T08:25:45;101517.78;;;-0.36;98.73
54270;BME280;40181;51.560;13.000;2023-03-03T08:28:16;101522.53;;;-0.31;98.22
54270;BME280;40181;51.560;13.000;2023-03-03T08:30:48;101524.31;;;-0.42;98.27
54270;BME280;40181;51.560;13.000;2023-03-03T08:33:18;101520.28;;;-0.26;99.04
54270;BME280;40181;51.560;13.000;2023-03-03T08:35:47;101526.09;;;-0.17;99.02
54270;BME280;40181;51.560;13.000;2023-03-03T08:38:19;101522.59;;;0.07;98.02
54270;BME280;40181;51.560;13.000;2023-03-03T08:40:49;101520.25;;;-0.14;97.24
54270;BME280;40181;51.560;13.000;2023-03-03T08:43:18;101525.78;;;-0.21;97.78
54270;BME280;40181;51.560;13.000;2023-03-03T08:45:53;101529.00;;;0.00;97.54
54270;BME280;40181;51.560;13.000;2023-03-03T08:48:27;101524.06;;;-0.21;99.09
54270;BME280;40181;51.560;13.000;2023-03-03T08:50:57;101526.28;;;-0.73;100.00
54270;BME280;40181;51.560;13.000;2023-03-03T08:53:26;101526.78;;;-0.31;100.00
54270;BME280;40181;51.560;13.000;2023-03-03T08:55:57;101533.94;;;-0.15;100.00
54270;BME280;40181;51.560;13.000;2023-03-03T08:58:26;101529.69;;;-0.26;99.91
54270;BME280;40181;51.560;13.000;2023-03-03T09:00:58;101521.94;;;-0.15;99.75
54270;BME280;40181;51.560;13.000;2023-03-03T09:03:27;101536.19;;;-0.08;99.39
54270;BME280;40181;51.560;13.000;2023-03-03T09:05:56;101533.84;;;-0.17;99.78
54270;BME280;40181;51.560;13.000;2023-03-03T09:08:26;101536.41;;;0.07;99.31
54270;BME280;40181;51.560;13.000;2023-03-03T09:10:55;101535.19;;;-0.10;99.12
54270;BME280;40181;51.560;13.000;2023-03-03T09:13:25;101530.03;;;-0.10;100.00
54270;BME280;40181;51.560;13.000;2023-03-03T09:15:59;101535.72;;;-0.02;99.43
54270;BME280;40181;51.560;13.000;2023-03-03T09:18:31;101530.88;;;0.15;98.90
54270;BME280;40181;51.560;13.000;2023-03-03T09:21:16;101530.56;;;0.10;98.68
54270;BME280;40181;51.560;13.000;2023-03-03T09:23:53;101526.97;;;0.08;99.20
54270;BME280;40181;51.560;13.000;2023-03-03T09:26:28;101530.34;;;0.07;100.00
54270;BME280;40181;51.560;13.000;2023-03-03T09:29:14;101534.84;;;-0.50;100.00
54270;BME280;40181;51.560;13.000;2023-03-03T09:31:50;101522.59;;;-0.29;100.00
54270;BME280;40181;51.560;13.000;2023-03-03T09:34:23;101521.94;;;-0.26;100.00
54270;BME280;40181;51.560;13.000;2023-03-03T09:36:54;101525.88;;;-0.44;100.00
54270;BME280;40181;51.560;13.000;2023-03-03T09:39:25;101519.47;;;-0.49;100.00
54270;BME280;40181;51.560;13.000;2023-03-03T09:48:20;101522.41;;;-0.08;100.00
54270;BME280;40181;51.560;13.000;2023-03-03T09:51:25;101523.63;;;-0.15;100.00
54270;BME280;40181;51.560;13.000;2023-03-03T09:54:11;101521.28;;;-0.12;100.00
54270;BME280;40181;51.560;13.000;2023-03-03T09:56:49;101527.91;;;-0.16;100.00
54270;BME280;40181;51.560;13.000;2023-03-03T09:59:35;101526.53;;;-0.10;100.00
54270;BME280;40181;51.560;13.000;2023-03-03T10:02:32;101529.56;;;-0.04;100.00
54270;BME280;40181;51.560;13.000;2023-03-03T10:05:25;101529.44;;;0.06;99.98
54270;BME280;40181;51.560;13.000;2023-03-03T10:08:12;101527.19;;;-0.01;100.00
54270;BME280;40181;51.560;13.000;2023-03-03T10:10:55;101531.53;;;0.24;100.00
54270;BME280;40181;51.560;13.000;2023-03-03T10:13:43;101528.88;;;0.10;100.00
54270;BME280;40181;51.560;13.000;2023-03-03T10:16:34;101528.75;;;0.21;99.75
54270;BME280;40181;51.560;13.000;2023-03-03T10:19:25;101520.53;;;0.26;99.67
54270;BME280;40181;51.560;13.000;2023-03-03T10:22:16;101522.94;;;0.49;98.79
54270;BME280;40181;51.560;13.000;2023-03-03T10:25:06;101539.88;;;0.20;99.03
54270;BME280;40181;51.560;13.000;2023-03-03T10:27:52;101540.19;;;0.24;99.44
54270;BME280;40181;51.560;13.000;2023-03-03T10:30:39;101542.25;;;0.54;99.27
54270;BME280;40181;51.560;13.000;2023-03-03T10:33:22;101547.97;;;0.24;98.78
54270;BME280;40181;51.560;13.000;2023-03-03T10:36:03;101544.56;;;0.37;98.89
54270;BME280;40181;51.560;13.000;2023-03-03T10:39:00;101553.88;;;0.35;99.51
54270;BME280;40181;51.560;13.000;2023-03-03T10:41:52;101552.47;;;0.64;97.91
54270;BME280;40181;51.560;13.000;2023-03-03T10:44:41;101540.88;;;0.59;97.86
54270;BME280;40181;51.560;13.000;2023-03-03T10:50:22;101536.47;;;0.70;98.50
54270;BME280;40181;51.560;13.000;2023-03-03T10:53:06;101537.47;;;0.72;98.05
54270;BME280;40181;51.560;13.000;2023-03-03T10:55:56;101530.50;;;0.46;98.53
54270;BME280;40181;51.560;13.000;2023-03-03T10:58:49;101532.41;;;0.74;99.07
54270;BME280;40181;51.560;13.000;2023-03-03T11:01:45;101534.31;;;0.39;100.00
54270;BME280;40181;51.560;13.000;2023-03-03T11:04:31;101545.50;;;0.63;99.09
54270;BME280;40181;51.560;13.000;2023-03-03T11:07:21;101541.00;;;0.61;98.86
54270;BME280;40181;51.560;13.000;2023-03-03T11:13:06;101534.72;;;0.57;99.17
54270;BME280;40181;51.560;13.000;2023-03-03T11:15:48;101529.00;;;0.49;98.80
54270;BME280;40181;51.560;13.000;2023-03-03T11:18:48;101533.56;;;0.65;98.47
54270;BME280;40181;51.560;13.000;2023-03-03T11:21:30;101542.13;;;0.64;96.91
54270;BME280;40181;51.560;13.000;2023-03-03T11:24:16;101533.72;;;0.55;97.68
54270;BME280;40181;51.560;13.000;2023-03-03T11:27:14;101529.31;;;0.54;98.61
54270;BME280;40181;51.560;13.000;2023-03-03T11:30:05;101527.59;;;0.66;98.51
54270;BME280;40181;51.560;13.000;2023-03-03T11:33:02;101517.19;;;0.78;98.06
54270;BME280;40181;51.560;13.000;2023-03-03T11:35:41;101523.78;;;0.61;98.23
54270;BME280;40181;51.560;13.000;2023-03-03T11:38:26;101512.31;;;0.58;98.51
54270;BME280;40181;51.560;13.000;2023-03-03T11:41:06;101507.47;;;0.62;98.71
54270;BME280;40181;51.560;13.000;2023-03-03T11:43:42;101514.81;;;0.56;97.42
54270;BME280;40181;51.560;13.000;2023-03-03T11:46:19;101507.34;;;0.73;97.53
54270;BME280;40181;51.560;13.000;2023-03-03T11:48:57;101517.72;;;0.86;97.12
54270;BME280;40181;51.560;13.000;2023-03-03T11:51:35;101512.72;;;0.76;97.56
54270;BME280;40181;51.560;13.000;2023-03-03T11:54:18;101509.16;;;0.87;97.22
54270;BME280;40181;51.560;13.000;2023-03-03T11:56:50;101519.66;;;1.02;97.34
54270;BME280;40181;51.560;13.000;2023-03-03T11:59:37;101518.84;;;1.03;97.08
54270;BME280;40181;51.560;13.000;2023-03-03T12:02:27;101505.47;;;0.58;98.48
54270;BME280;40181;51.560;13.000;2023-03-03T12:05:04;101503.44;;;0.29;100.00
54270;BME280;40181;51.560;13.000;2023-03-03T12:07:40;101499.25;;;0.68;99.76
54270;BME280;40181;51.560;13.000;2023-03-03T12:10:23;101493.16;;;0.93;99.02
54270;BME280;40181;51.560;13.000;2023-03-03T12:13:01;101495.16;;;0.97;98.87
54270;BME280;40181;51.560;13.000;2023-03-03T12:15:38;101496.75;;;0.95;98.14
54270;BME280;40181;51.560;13.000;2023-03-03T12:18:22;101486.66;;;0.73;98.23
54270;BME280;40181;51.560;13.000;2023-03-03T12:21:25;101487.91;;;0.91;97.52
54270;BME280;40181;51.560;13.000;2023-03-03T12:24:15;101494.50;;;1.00;96.82
54270;BME280;40181;51.560;13.000;2023-03-03T12:27:04;101486.25;;;1.19;96.23
54270;BME280;40181;51.560;13.000;2023-03-03T12:29:41;101489.81;;;1.07;96.33
54270;BME280;40181;51.560;13.000;2023-03-03T12:32:21;101486.53;;;1.10;95.21
54270;BME280;40181;51.560;13.000;2023-03-03T12:35:05;101474.03;;;0.91;97.48
54270;BME280;40181;51.560;13.000;2023-03-03T12:37:47;101473.78;;;1.00;97.43
54270;BME280;40181;51.560;13.000;2023-03-03T12:40:24;101473.78;;;1.00;97.39
54270;BME280;40181;51.560;13.000;2023-03-03T12:43:06;101475.00;;;1.18;96.74
54270;BME280;40181;51.560;13.000;2023-03-03T12:45:53;101463.13;;;1.08;97.24
54270;BME280;40181;51.560;13.000;2023-03-03T12:48:31;101466.06;;;1.27;96.08
54270;BME280;40181;51.560;13.000;2023-03-03T12:51:14;101471.88;;;0.97;96.80
54270;BME280;40181;51.560;13.000;2023-03-03T12:54:12;101458.31;;;1.27;96.61
54270;BME280;40181;51.560;13.000;2023-03-03T12:57:03;101456.19;;;1.34;96.02
54270;BME280;40181;51.560;13.000;2023-03-03T12:59:47;101453.81;;;1.24;96.49
54270;BME280;40181;51.560;13.000;2023-03-03T13:02:37;101453.66;;;0.95;97.66
54270;BME280;40181;51.560;13.000;2023-03-03T13:05:19;101456.78;;;1.30;95.86
54270;BME280;40181;51.560;13.000;2023-03-03T13:08:02;101451.41;;;1.14;95.52
54270;BME280;40181;51.560;13.000;2023-03-03T13:10:56;101451.13;;;1.49;95.51
54270;BME280;40181;51.560;13.000;2023-03-03T13:13:33;101453.19;;;1.28;95.54
54270;BME280;40181;51.560;13.000;2023-03-03T13:16:10;101447.34;;;1.44;95.52
54270;BME280;40181;51.560;13.000;2023-03-03T13:18:50;101440.03;;;1.65;94.68
54270;BME280;40181;51.560;13.000;2023-03-03T13:21:29;101438.97;;;1.48;95.47
54270;BME280;40181;51.560;13.000;2023-03-03T13:24:16;101438.19;;;1.36;95.51
54270;BME280;40181;51.560;13.000;2023-03-03T13:26:52;101445.53;;;1.43;95.83
54270;BME280;40181;51.560;13.000;2023-03-03T13:29:26;101432.69;;;1.45;95.83
54270;BME280;40181;51.560;13.000;2023-03-03T13:32:01;101429.09;;;1.70;95.22
54270;BME280;40181;51.560;13.000;2023-03-03T13:34:40;101432.81;;;1.19;96.65